createdAt,value
2023-01-30T00:01:04.033Z,70.93
2023-01-30T00:03:44.210Z,71.69
2023-01-30T00:06:37.350Z,71.58
2023-01-30T00:15:55.813Z,72.01
2023-01-30T00:18:42.639Z,71.81
2023-01-30T00:21:25.039Z,71.26
2023-01-30T00:24:02.421Z,70.98
2023-01-30T00:26:49.375Z,70.70
2023-01-30T00:29:27.964Z,70.59
2023-01-30T00:31:57.264Z,70.47
2023-01-30T00:34:24.140Z,71.33
2023-01-30T00:39:56.530Z,71.40
2023-01-30T00:42:57.036Z,72.21
2023-01-30T00:45:47.058Z,71.37
2023-01-30T00:48:23.853Z,71.02
2023-01-30T00:50:53.429Z,70.72
2023-01-30T00:53:33.098Z,68.87
2023-01-30T00:56:19.868Z,67.57
2023-01-30T00:58:51.068Z,67.51
2023-01-30T01:01:24.503Z,67.60
2023-01-30T01:03:54.754Z,67.61
2023-01-30T01:06:22.615Z,67.45
2023-01-30T01:08:53.976Z,67.68
2023-01-30T01:11:29.452Z,67.97
2023-01-30T01:13:58.817Z,67.64
2023-01-30T01:16:26.917Z,67.51
2023-01-30T01:19:07.931Z,67.50
2023-01-30T01:21:34.637Z,67.31
2023-01-30T01:24:07.795Z,67.13
2023-01-30T01:26:41.945Z,67.01
2023-01-30T01:29:13.205Z,67.20
2023-01-30T01:31:42.684Z,67.23
2023-01-30T01:34:10.011Z,65.76
2023-01-30T01:36:52.689Z,65.86
2023-01-30T01:39:48.795Z,65.78
2023-01-30T01:42:20.180Z,66.17
2023-01-30T01:45:21.748Z,64.84
2023-01-30T01:48:00.553Z,66.01
2023-01-30T01:50:53.986Z,66.31
2023-01-30T01:53:30.314Z,66.35
2023-01-30T01:56:06.919Z,66.69
2023-01-30T01:58:43.547Z,66.87
2023-01-30T02:01:10.398Z,66.77
2023-01-30T02:03:49.540Z,67.18
2023-01-30T02:06:18.457Z,67.45
2023-01-30T02:08:54.147Z,66.94
2023-01-30T02:11:37.659Z,65.44
2023-01-30T02:14:13.751Z,65.89
2023-01-30T02:16:40.667Z,65.53
2023-01-30T02:19:35.220Z,66.63
2023-01-30T02:22:36.841Z,65.51
2023-01-30T02:25:43.707Z,66.17
2023-01-30T02:28:47.015Z,64.44
2023-01-30T02:31:26.433Z,63.93
2023-01-30T02:34:35.033Z,64.07
2023-01-30T02:37:16.379Z,64.72
2023-01-30T02:39:55.552Z,65.21
2023-01-30T02:42:46.074Z,65.27
2023-01-30T02:45:57.765Z,65.95
2023-01-30T02:48:47.143Z,65.87
2023-01-30T02:51:56.037Z,66.02
2023-01-30T02:54:25.453Z,66.14
2023-01-30T02:56:58.911Z,66.33
2023-01-30T02:59:41.574Z,67.46
2023-01-30T03:02:34.355Z,68.00
2023-01-30T03:05:19.843Z,67.14
2023-01-30T03:08:41.200Z,66.68
2023-01-30T03:11:11.857Z,67.51
2023-01-30T03:13:58.179Z,68.20
2023-01-30T03:16:36.867Z,66.36
2023-01-30T03:19:12.197Z,66.64
2023-01-30T03:21:45.969Z,67.16
2023-01-30T03:24:22.767Z,67.62
2023-01-30T03:27:33.455Z,67.00
2023-01-30T03:30:06.294Z,66.77
2023-01-30T03:32:36.527Z,66.01
2023-01-30T03:35:10.497Z,66.21
2023-01-30T03:37:47.300Z,67.21
2023-01-30T03:40:23.489Z,67.22
2023-01-30T03:43:00.670Z,67.39
2023-01-30T03:45:29.717Z,66.81
2023-01-30T03:48:06.952Z,67.11
2023-01-30T03:50:52.166Z,67.54
2023-01-30T03:53:38.657Z,67.12
2023-01-30T03:56:10.853Z,67.48
2023-01-30T03:58:53.724Z,67.20
2023-01-30T04:01:28.632Z,67.09
2023-01-30T04:04:02.114Z,67.69
2023-01-30T04:06:38.605Z,67.70
2023-01-30T04:12:02.683Z,68.98
2023-01-30T04:14:38.649Z,68.13
2023-01-30T04:17:32.195Z,67.77
2023-01-30T04:20:07.209Z,67.79
2023-01-30T04:22:51.755Z,67.86
2023-01-30T04:25:21.891Z,67.64
2023-01-30T04:27:48.823Z,67.87
2023-01-30T04:30:22.368Z,68.05
2023-01-30T04:33:12.231Z,67.41
2023-01-30T04:35:56.356Z,66.50
2023-01-30T04:38:24.132Z,67.20
2023-01-30T04:40:51.894Z,67.38
2023-01-30T04:43:27.910Z,68.00
2023-01-30T04:45:55.386Z,67.42
2023-01-30T04:48:25.006Z,67.71
2023-01-30T04:51:02.215Z,67.04
2023-01-30T04:53:36.663Z,67.09
2023-01-30T04:56:06.777Z,66.75
2023-01-30T04:58:44.587Z,66.54
2023-01-30T05:01:30.928Z,66.88
2023-01-30T05:04:05.956Z,67.43
2023-01-30T05:06:34.924Z,66.51
2023-01-30T05:09:14.912Z,66.93
2023-01-30T05:11:44.646Z,66.92
2023-01-30T05:14:13.899Z,66.58
2023-01-30T05:17:08.636Z,66.67
2023-01-30T05:19:37.491Z,66.98
2023-01-30T05:22:30.503Z,67.08
2023-01-30T05:24:59.338Z,68.07
2023-01-30T05:27:29.544Z,67.04
2023-01-30T05:29:57.838Z,66.42
2023-01-30T05:32:32.565Z,65.62
2023-01-30T05:35:14.533Z,64.62
2023-01-30T05:37:44.368Z,62.28
2023-01-30T05:40:14.578Z,64.12
2023-01-30T05:42:44.431Z,62.53
2023-01-30T05:45:12.636Z,63.15
2023-01-30T05:47:40.450Z,62.35
2023-01-30T05:50:13.400Z,62.57
2023-01-30T05:52:42.738Z,64.14
2023-01-30T05:57:50.860Z,64.49
2023-01-30T06:00:24.870Z,64.41
2023-01-30T06:03:35.036Z,64.52
2023-01-30T06:06:14.938Z,64.48
2023-01-30T06:08:55.955Z,66.34
2023-01-30T06:11:30.466Z,62.90
2023-01-30T06:13:58.638Z,62.56
2023-01-30T06:16:35.622Z,62.49
2023-01-30T06:19:07.787Z,61.16
2023-01-30T06:24:43.902Z,62.08
2023-01-30T06:27:10.648Z,61.80
2023-01-30T06:29:47.022Z,61.92
2023-01-30T06:32:16.673Z,62.19
2023-01-30T06:34:44.074Z,62.33
2023-01-30T06:37:10.797Z,62.85
2023-01-30T06:39:42.794Z,63.77
2023-01-30T06:42:11.503Z,64.62
2023-01-30T06:44:46.179Z,64.68
2023-01-30T06:47:34.448Z,63.91
2023-01-30T06:50:01.160Z,64.91
2023-01-30T06:52:31.075Z,64.95
2023-01-30T06:55:04.004Z,65.46
2023-01-30T06:57:30.969Z,65.34
2023-01-30T07:00:03.634Z,65.00
2023-01-30T07:02:32.564Z,65.65
2023-01-30T07:05:02.737Z,65.45
2023-01-30T07:07:35.201Z,65.30
2023-01-30T07:10:09.457Z,64.97
2023-01-30T07:12:51.170Z,65.25
2023-01-30T07:15:40.345Z,65.12
2023-01-30T07:18:11.415Z,66.60
2023-01-30T07:20:39.182Z,65.43
2023-01-30T07:23:37.130Z,63.76
2023-01-30T07:26:16.523Z,63.92
2023-01-30T07:29:01.436Z,63.59
2023-01-30T07:31:33.586Z,64.07
2023-01-30T07:34:06.542Z,63.54
2023-01-30T07:36:40.644Z,63.02
2023-01-30T07:42:07.918Z,63.34
2023-01-30T07:44:37.605Z,62.18
2023-01-30T07:47:11.553Z,62.28
2023-01-30T07:49:49.678Z,63.69
2023-01-30T07:55:08.514Z,62.13
2023-01-30T07:57:39.567Z,59.77
2023-01-30T08:00:29.805Z,58.42
2023-01-30T08:03:18.506Z,57.78
2023-01-30T08:05:56.953Z,58.27
2023-01-30T08:08:23.620Z,57.02
2023-01-30T08:10:50.890Z,56.44
2023-01-30T08:13:17.779Z,56.83
2023-01-30T08:15:47.542Z,57.27
2023-01-30T08:18:24.163Z,56.81
2023-01-30T08:20:56.888Z,57.91
2023-01-30T08:23:36.033Z,56.94
2023-01-30T08:26:12.109Z,55.79
2023-01-30T08:28:47.176Z,54.47
2023-01-30T08:31:18.978Z,55.10
2023-01-30T08:33:51.255Z,54.11
2023-01-30T08:36:17.996Z,53.61
2023-01-30T08:38:54.499Z,56.71
2023-01-30T08:41:28.232Z,53.99
2023-01-30T08:44:01.086Z,54.75
2023-01-30T08:46:30.249Z,53.24
2023-01-30T08:49:06.096Z,52.89
2023-01-30T08:51:37.189Z,53.23
2023-01-30T08:54:10.817Z,55.32
2023-01-30T08:56:38.853Z,54.86
2023-01-30T08:59:15.227Z,56.83
2023-01-30T09:01:50.538Z,55.88
2023-01-30T09:04:19.245Z,55.33
2023-01-30T09:06:52.286Z,54.56
2023-01-30T09:09:26.186Z,51.48
2023-01-30T09:12:04.276Z,49.45
2023-01-30T09:14:41.883Z,52.15
2023-01-30T09:17:08.598Z,51.69
2023-01-30T09:19:45.415Z,50.54
2023-01-30T09:22:13.089Z,49.52
2023-01-30T09:24:39.924Z,48.87
2023-01-30T09:27:06.657Z,53.60
2023-01-30T09:29:37.927Z,50.57
2023-01-30T09:32:15.251Z,49.45
2023-01-30T09:34:49.934Z,48.23
2023-01-30T09:37:19.753Z,48.26
2023-01-30T09:39:49.120Z,47.82
2023-01-30T09:42:54.555Z,53.40
2023-01-30T09:45:41.043Z,48.63
2023-01-30T09:48:28.764Z,47.15
2023-01-30T09:51:31.980Z,46.74
2023-01-30T09:54:05.607Z,48.54
2023-01-30T09:56:34.094Z,51.72
2023-01-30T09:59:14.404Z,50.73
2023-01-30T10:01:54.474Z,51.76
2023-01-30T10:05:07.145Z,51.01
2023-01-30T10:07:32.547Z,46.46
2023-01-30T10:10:40.134Z,45.40
2023-01-30T10:13:38.571Z,47.23
2023-01-30T10:16:26.979Z,46.81
2023-01-30T10:19:06.741Z,50.59
2023-01-30T10:22:19.101Z,47.49
2023-01-30T10:25:21.626Z,50.24
2023-01-30T10:27:54.745Z,45.82
2023-01-30T10:30:24.684Z,49.60
2023-01-30T10:33:22.319Z,45.78
2023-01-30T10:36:03.353Z,46.76
2023-01-30T10:38:48.498Z,46.89
2023-01-30T10:41:45.059Z,45.75
2023-01-30T10:44:33.121Z,45.84
2023-01-30T10:47:07.256Z,48.12
2023-01-30T10:49:58.930Z,49.82
2023-01-30T10:52:50.166Z,51.06
2023-01-30T10:55:40.128Z,47.95
2023-01-30T10:58:51.573Z,49.48
2023-01-30T11:01:55.884Z,49.63
2023-01-30T11:04:32.105Z,49.93
2023-01-30T11:07:11.693Z,47.60
2023-01-30T11:09:55.074Z,49.70
2023-01-30T11:12:30.261Z,49.18
2023-01-30T11:15:33.957Z,48.62
2023-01-30T11:18:49.736Z,49.83
2023-01-30T11:21:08.556Z,50.13
2023-01-30T11:23:43.358Z,49.61
2023-01-30T11:26:47.079Z,50.29
2023-01-30T11:29:45.957Z,49.95
2023-01-30T11:32:51.061Z,48.88
2023-01-30T11:35:29.973Z,51.83
2023-01-30T11:38:19.343Z,50.94
2023-01-30T11:40:46.148Z,50.44
2023-01-30T11:43:41.064Z,50.78
2023-01-30T11:46:10.038Z,50.36
2023-01-30T11:49:02.339Z,52.10
2023-01-30T11:51:38.285Z,53.00
2023-01-30T11:54:35.853Z,52.04
2023-01-30T11:57:14.844Z,51.21
2023-01-30T11:59:55.828Z,50.96
2023-01-30T12:02:40.402Z,51.50
2023-01-30T12:05:37.673Z,51.62
2023-01-30T12:08:14.716Z,50.80
2023-01-30T12:10:58.834Z,52.41
2023-01-30T12:13:55.597Z,52.61
2023-01-30T12:16:45.115Z,50.88
2023-01-30T12:19:59.607Z,51.80
2023-01-30T12:23:20.156Z,50.91
2023-01-30T12:26:29.556Z,50.96
2023-01-30T12:29:33.824Z,51.33
2023-01-30T12:32:29.747Z,51.45
2023-01-30T12:35:14.740Z,51.91
2023-01-30T12:38:18.886Z,50.98
2023-01-30T12:40:57.680Z,50.26
2023-01-30T12:43:40.337Z,50.32
2023-01-30T12:46:14.916Z,49.58
2023-01-30T12:49:12.156Z,48.43
2023-01-30T12:52:19.339Z,47.29
2023-01-30T12:55:16.510Z,46.80
2023-01-30T12:58:17.402Z,48.72
2023-01-30T13:01:08.059Z,48.60
2023-01-30T13:04:09.789Z,51.15
2023-01-30T13:07:03.656Z,48.40
2023-01-30T13:10:12.021Z,49.34
2023-01-30T13:13:10.197Z,47.10
2023-01-30T13:15:55.538Z,49.93
2023-01-30T13:18:55.512Z,50.25
2023-01-30T13:24:38.895Z,48.93
2023-01-30T13:27:16.018Z,47.43
2023-01-30T13:30:17.706Z,50.86
2023-01-30T13:33:14.120Z,47.43
2023-01-30T13:36:24.273Z,49.38
2023-01-30T13:42:12.714Z,46.54
2023-01-30T13:45:25.542Z,50.63
2023-01-30T13:48:21.034Z,46.81
2023-01-30T13:51:19.389Z,48.55
2023-01-30T13:54:27.531Z,47.77
2023-01-30T13:57:23.373Z,47.53
2023-01-30T14:00:24.811Z,51.00
2023-01-30T14:03:15.422Z,49.47
2023-01-30T14:06:08.080Z,46.78
2023-01-30T14:08:40.800Z,48.29
2023-01-30T14:11:31.423Z,46.64
2023-01-30T14:14:17.439Z,47.48
2023-01-30T14:17:32.041Z,45.63
2023-01-30T14:20:06.947Z,47.43
2023-01-30T14:22:42.843Z,46.99
2023-01-30T14:25:28.100Z,47.50
2023-01-30T14:28:10.232Z,50.47
2023-01-30T14:30:48.317Z,46.13
2023-01-30T14:33:21.337Z,50.26
2023-01-30T14:36:11.586Z,49.56
2023-01-30T14:38:45.586Z,48.85
2023-01-30T14:41:19.765Z,48.61
2023-01-30T14:43:57.200Z,50.11
2023-01-30T14:46:33.067Z,47.61
2023-01-30T14:49:33.086Z,50.48
2023-01-30T14:52:01.035Z,48.57
2023-01-30T14:54:41.749Z,50.26
2023-01-30T14:57:20.124Z,48.51
2023-01-30T15:00:14.191Z,49.42
2023-01-30T15:02:52.000Z,49.18
2023-01-30T15:05:45.985Z,49.19
2023-01-30T15:08:15.339Z,48.92
2023-01-30T15:11:12.065Z,50.87
2023-01-30T15:13:46.017Z,49.68
2023-01-30T15:16:57.488Z,48.79
2023-01-30T15:20:00.135Z,49.17
2023-01-30T15:23:11.554Z,50.07
2023-01-30T15:25:59.673Z,51.90
2023-01-30T15:28:33.289Z,49.11
2023-01-30T15:31:23.275Z,51.39
2023-01-30T15:34:09.961Z,51.38
2023-01-30T15:36:37.422Z,51.73
2023-01-30T15:39:33.497Z,52.10
2023-01-30T15:42:28.515Z,51.80
2023-01-30T15:45:21.448Z,51.29
2023-01-30T15:47:58.893Z,51.95
2023-01-30T15:50:28.835Z,50.22
2023-01-30T15:53:16.183Z,50.21
2023-01-30T15:56:42.371Z,49.80
2023-01-30T15:58:52.864Z,51.28
2023-01-30T16:01:23.497Z,52.29
2023-01-30T16:04:03.543Z,53.47
2023-01-30T16:07:07.399Z,53.94
2023-01-30T16:09:34.166Z,52.16
2023-01-30T16:12:02.006Z,53.64
2023-01-30T16:14:28.649Z,54.02
2023-01-30T16:17:07.903Z,54.92
2023-01-30T16:19:38.601Z,54.17
2023-01-30T16:22:31.682Z,55.47
2023-01-30T16:25:04.816Z,55.37
2023-01-30T16:27:46.256Z,54.64
2023-01-30T16:30:19.917Z,54.21
2023-01-30T16:32:57.631Z,54.64
2023-01-30T16:35:34.553Z,54.80
2023-01-30T16:38:26.092Z,55.49
2023-01-30T16:40:54.599Z,57.71
2023-01-30T16:43:32.411Z,57.27
2023-01-30T16:46:41.066Z,57.47
2023-01-30T16:49:26.454Z,56.15
2023-01-30T16:52:25.819Z,57.43
2023-01-30T16:54:54.223Z,57.96
2023-01-30T16:57:36.487Z,59.06
2023-01-30T17:03:31.467Z,60.22
2023-01-30T17:06:25.686Z,59.31
2023-01-30T17:08:55.893Z,60.02
2023-01-30T17:11:42.995Z,60.78
2023-01-30T17:14:41.122Z,60.35
2023-01-30T17:17:13.445Z,61.00
2023-01-30T17:19:55.695Z,60.88
2023-01-30T17:22:32.592Z,60.69
2023-01-30T17:25:06.335Z,60.20
2023-01-30T17:27:36.157Z,61.51
2023-01-30T17:30:20.006Z,61.76
2023-01-30T17:32:56.758Z,62.36
2023-01-30T17:35:30.970Z,63.33
2023-01-30T17:38:15.530Z,63.17
2023-01-30T17:40:45.868Z,62.17
2023-01-30T17:43:22.010Z,62.38
2023-01-30T17:45:52.452Z,62.78
2023-01-30T17:48:19.881Z,63.13
2023-01-30T17:50:46.888Z,63.40
2023-01-30T17:53:20.442Z,63.22
2023-01-30T17:55:51.833Z,63.25
2023-01-30T17:58:19.995Z,64.27
2023-01-30T18:00:57.174Z,64.33
2023-01-30T18:03:48.858Z,64.20
2023-01-30T18:06:19.076Z,63.53
2023-01-30T18:08:46.118Z,63.67
2023-01-30T18:11:15.054Z,64.62
2023-01-30T18:13:43.299Z,64.52
2023-01-30T18:16:36.957Z,64.26
2023-01-30T18:19:06.918Z,64.56
2023-01-30T18:21:34.647Z,64.27
2023-01-30T18:24:02.419Z,65.22
2023-01-30T18:26:33.513Z,65.29
2023-01-30T18:29:00.457Z,65.01
2023-01-30T18:31:32.121Z,64.99
2023-01-30T18:33:59.073Z,65.01
2023-01-30T18:36:28.331Z,64.92
2023-01-30T18:38:55.414Z,65.51
2023-01-30T18:41:24.394Z,65.48
2023-01-30T18:44:04.756Z,64.59
2023-01-30T18:46:40.949Z,64.49
2023-01-30T18:49:11.157Z,65.78
2023-01-30T18:51:43.160Z,65.91
2023-01-30T18:54:11.488Z,66.73
2023-01-30T18:56:51.065Z,66.09
2023-01-30T18:59:21.215Z,66.19
2023-01-30T19:01:48.680Z,65.30
2023-01-30T19:04:22.914Z,65.48
2023-01-30T19:07:04.303Z,66.06
2023-01-30T19:09:45.267Z,66.40
2023-01-30T19:12:36.178Z,66.53
2023-01-30T19:15:13.493Z,66.77
2023-01-30T19:17:47.640Z,67.69
2023-01-30T19:20:23.490Z,67.58
2023-01-30T19:23:05.348Z,66.39
2023-01-30T19:25:42.536Z,66.24
2023-01-30T19:28:18.189Z,65.99
2023-01-30T19:30:52.726Z,65.59
2023-01-30T19:33:32.997Z,65.85
2023-01-30T19:36:23.355Z,66.52
2023-01-30T19:38:59.982Z,67.33
2023-01-30T19:41:42.068Z,66.58
2023-01-30T19:44:16.458Z,65.56
2023-01-30T19:46:49.634Z,66.25
2023-01-30T19:49:24.593Z,66.52
2023-01-30T19:52:01.473Z,66.53
2023-01-30T19:54:35.041Z,66.96
2023-01-30T19:57:15.000Z,67.40
2023-01-30T19:59:50.995Z,68.31
2023-01-30T20:02:17.967Z,67.77
2023-01-30T20:04:44.813Z,68.14
2023-01-30T20:07:22.081Z,67.84
2023-01-30T20:09:49.267Z,67.89
2023-01-30T20:12:33.436Z,67.99
2023-01-30T20:15:05.842Z,68.46
2023-01-30T20:17:44.229Z,68.04
2023-01-30T20:20:17.415Z,67.04
2023-01-30T20:22:55.603Z,67.22
2023-01-30T20:25:31.763Z,67.56
2023-01-30T20:28:06.921Z,67.39
2023-01-30T20:30:43.809Z,68.22
2023-01-30T20:33:22.535Z,68.52
2023-01-30T20:38:43.451Z,68.24
2023-01-30T20:41:26.501Z,67.46
2023-01-30T20:44:03.638Z,66.55
2023-01-30T20:46:51.078Z,67.01
2023-01-30T20:49:28.388Z,67.04
2023-01-30T20:52:13.238Z,67.84
2023-01-30T20:54:51.064Z,68.24
2023-01-30T20:57:39.452Z,68.01
2023-01-30T21:00:12.575Z,68.26
2023-01-30T21:02:54.417Z,68.33
2023-01-30T21:05:30.290Z,68.83
2023-01-30T21:08:12.252Z,68.72
2023-01-30T21:10:50.252Z,69.36
2023-01-30T21:13:31.898Z,69.28
2023-01-30T21:16:18.174Z,68.87
2023-01-30T21:19:00.047Z,68.80
2023-01-30T21:21:45.734Z,68.08
2023-01-30T21:24:36.810Z,67.99
2023-01-30T21:27:18.846Z,67.44
2023-01-30T21:30:11.852Z,66.93
2023-01-30T21:32:57.725Z,66.97
2023-01-30T21:35:55.500Z,67.01
2023-01-30T21:38:55.372Z,67.81
2023-01-30T21:42:08.607Z,67.78
2023-01-30T21:44:48.486Z,68.45
2023-01-30T21:47:22.370Z,67.83
2023-01-30T21:50:04.704Z,65.08
2023-01-30T21:52:33.605Z,65.13
2023-01-30T21:55:19.475Z,66.77
2023-01-30T21:57:49.419Z,67.65
2023-01-30T22:00:17.567Z,67.99
2023-01-30T22:03:00.344Z,67.07
2023-01-30T22:05:30.839Z,65.60
2023-01-30T22:08:07.518Z,66.94
2023-01-30T22:10:42.297Z,65.98
2023-01-30T22:13:23.976Z,68.40
2023-01-30T22:16:00.235Z,66.99
2023-01-30T22:18:51.087Z,66.60
2023-01-30T22:21:33.438Z,67.28
2023-01-30T22:24:14.564Z,62.69
2023-01-30T22:26:59.189Z,63.33
2023-01-30T22:29:40.718Z,61.74
2023-01-30T22:32:14.288Z,58.83
2023-01-30T22:35:18.176Z,59.65
2023-01-30T22:38:11.515Z,58.07
2023-01-30T22:40:38.828Z,58.65
2023-01-30T22:43:18.665Z,59.55
2023-01-30T22:46:05.682Z,60.52
2023-01-30T22:48:38.611Z,59.39
2023-01-30T22:51:41.648Z,60.58
2023-01-30T22:54:44.382Z,62.49
2023-01-30T22:57:36.920Z,60.94
2023-01-30T23:03:12.704Z,65.74
2023-01-30T23:05:52.715Z,63.15
2023-01-30T23:08:47.382Z,64.07
2023-01-30T23:11:40.369Z,65.01
2023-01-30T23:14:18.913Z,60.85
2023-01-30T23:17:09.731Z,62.01
2023-01-30T23:19:57.592Z,63.10
2023-01-30T23:22:54.515Z,63.71
2023-01-30T23:25:36.624Z,65.04
2023-01-30T23:28:31.687Z,65.58
2023-01-30T23:31:42.734Z,65.43
2023-01-30T23:34:41.236Z,67.06
2023-01-30T23:37:21.326Z,68.27
2023-01-30T23:40:06.461Z,68.50
2023-01-30T23:42:50.185Z,66.74
2023-01-30T23:45:30.144Z,67.39
2023-01-30T23:48:18.412Z,67.56
2023-01-30T23:51:05.388Z,69.09
2023-01-30T23:53:53.336Z,68.64
2023-01-30T23:56:55.005Z,69.81
